sensor_id;sensor_type;location;lat;lon;timestamp;temperature;humidity
33269;DHT22;19640;50.944;5.260;2024-03-17T00:01:03;6.70;99.90
33269;DHT22;19640;50.944;5.260;2024-03-17T00:03:29;6.80;99.90
33269;DHT22;19640;50.944;5.260;2024-03-17T00:05:57;6.80;99.90
33269;DHT22;19640;50.944;5.260;2024-03-17T00:08:23;6.80;99.90
33269;DHT22;19640;50.944;5.260;2024-03-17T00:10:53;6.90;99.90
33269;DHT22;19640;50.944;5.260;2024-03-17T00:13:19;6.90;99.90
33269;DHT22;19640;50.944;5.260;2024-03-17T00:15:45;7.00;99.90
33269;DHT22;19640;50.944;5.260;2024-03-17T00:18:10;7.00;99.90
33269;DHT22;19640;50.944;5.260;2024-03-17T00:20:39;6.90;99.90
33269;DHT22;19640;50.944;5.260;2024-03-17T00:23:04;6.80;99.90
33269;DHT22;19640;50.944;5.260;2024-03-17T00:25:35;6.60;99.90
33269;DHT22;19640;50.944;5.260;2024-03-17T00:28:01;6.50;99.90
33269;DHT22;19640;50.944;5.260;2024-03-17T00:30:27;6.40;99.90
33269;DHT22;19640;50.944;5.260;2024-03-17T00:32:53;6.40;99.90
33269;DHT22;19640;50.944;5.260;2024-03-17T00:35:19;6.40;99.90
33269;DHT22;19640;50.944;5.260;2024-03-17T00:37:48;6.40;99.90
33269;DHT22;19640;50.944;5.260;2024-03-17T00:40:15;6.50;99.90
33269;DHT22;19640;50.944;5.260;2024-03-17T00:42:42;6.60;99.90
33269;DHT22;19640;50.944;5.260;2024-03-17T00:45:08;6.50;99.90
33269;DHT22;19640;50.944;5.260;2024-03-17T00:47:35;6.20;99.90
33269;DHT22;19640;50.944;5.260;2024-03-17T00:50:01;6.00;99.90
33269;DHT22;19640;50.944;5.260;2024-03-17T00:52:27;5.70;99.90
33269;DHT22;19640;50.944;5.260;2024-03-17T00:54:53;5.60;99.90
33269;DHT22;19640;50.944;5.260;2024-03-17T00:57:19;5.40;99.90
33269;DHT22;19640;50.944;5.260;2024-03-17T00:59:45;5.40;99.90
33269;DHT22;19640;50.944;5.260;2024-03-17T01:02:11;5.40;99.90
33269;DHT22;19640;50.944;5.260;2024-03-17T01:04:45;5.30;99.90
33269;DHT22;19640;50.944;5.260;2024-03-17T01:07:11;5.30;99.90
33269;DHT22;19640;50.944;5.260;2024-03-17T01:09:37;5.40;99.90
33269;DHT22;19640;50.944;5.260;2024-03-17T01:12:03;5.40;99.90
33269;DHT22;19640;50.944;5.260;2024-03-17T01:14:29;5.30;99.90
33269;DHT22;19640;50.944;5.260;2024-03-17T01:16:56;5.30;99.90
33269;DHT22;19640;50.944;5.260;2024-03-17T01:19:22;5.40;99.90
33269;DHT22;19640;50.944;5.260;2024-03-17T01:21:48;5.60;99.90
33269;DHT22;19640;50.944;5.260;2024-03-17T01:24:14;5.70;99.90
33269;DHT22;19640;50.944;5.260;2024-03-17T01:26:40;5.80;99.90
33269;DHT22;19640;50.944;5.260;2024-03-17T01:29:05;5.90;99.90
33269;DHT22;19640;50.944;5.260;2024-03-17T01:31:31;6.00;99.90
33269;DHT22;19640;50.944;5.260;2024-03-17T01:33:57;6.00;99.90
33269;DHT22;19640;50.944;5.260;2024-03-17T01:36:22;6.00;99.90
33269;DHT22;19640;50.944;5.260;2024-03-17T01:38:48;5.90;99.90
33269;DHT22;19640;50.944;5.260;2024-03-17T01:41:14;5.90;99.90
33269;DHT22;19640;50.944;5.260;2024-03-17T01:43:40;6.10;99.90
33269;DHT22;19640;50.944;5.260;2024-03-17T01:46:06;6.10;99.90
33269;DHT22;19640;50.944;5.260;2024-03-17T01:48:35;6.10;99.90
33269;DHT22;19640;50.944;5.260;2024-03-17T01:51:02;6.10;99.90
33269;DHT22;19640;50.944;5.260;2024-03-17T01:53:28;6.20;99.90
33269;DHT22;19640;50.944;5.260;2024-03-17T01:55:57;6.50;99.90
33269;DHT22;19640;50.944;5.260;2024-03-17T01:58:27;6.70;99.90
33269;DHT22;19640;50.944;5.260;2024-03-17T02:00:56;6.80;99.90
33269;DHT22;19640;50.944;5.260;2024-03-17T02:03:22;6.80;99.90
33269;DHT22;19640;50.944;5.260;2024-03-17T02:05:48;6.70;99.90
33269;DHT22;19640;50.944;5.260;2024-03-17T02:08:14;6.60;99.90
33269;DHT22;19640;50.944;5.260;2024-03-17T02:10:40;6.60;99.90
33269;DHT22;19640;50.944;5.260;2024-03-17T02:13:06;6.50;99.90
33269;DHT22;19640;50.944;5.260;2024-03-17T02:15:34;6.50;99.90
33269;DHT22;19640;50.944;5.260;2024-03-17T02:18:00;6.60;99.90
33269;DHT22;19640;50.944;5.260;2024-03-17T02:20:26;6.60;99.90
33269;DHT22;19640;50.944;5.260;2024-03-17T02:23:10;6.60;99.90
33269;DHT22;19640;50.944;5.260;2024-03-17T02:25:36;6.70;99.90
33269;DHT22;19640;50.944;5.260;2024-03-17T02:28:02;6.70;99.90
33269;DHT22;19640;50.944;5.260;2024-03-17T02:30:28;6.80;99.90
33269;DHT22;19640;50.944;5.260;2024-03-17T02:32:54;6.90;99.90
33269;DHT22;19640;50.944;5.260;2024-03-17T02:35:21;6.90;99.90
33269;DHT22;19640;50.944;5.260;2024-03-17T02:37:47;7.00;99.90
33269;DHT22;19640;50.944;5.260;2024-03-17T02:40:13;7.10;99.90
33269;DHT22;19640;50.944;5.260;2024-03-17T02:42:39;7.40;99.90
33269;DHT22;19640;50.944;5.260;2024-03-17T02:45:08;7.40;99.90
33269;DHT22;19640;50.944;5.260;2024-03-17T02:47:34;7.60;99.90
33269;DHT22;19640;50.944;5.260;2024-03-17T02:50:00;7.50;99.90
33269;DHT22;19640;50.944;5.260;2024-03-17T02:52:26;7.50;99.90
33269;DHT22;19640;50.944;5.260;2024-03-17T02:54:52;7.40;99.90
33269;DHT22;19640;50.944;5.260;2024-03-17T02:57:23;7.40;99.90
33269;DHT22;19640;50.944;5.260;2024-03-17T02:59:55;7.50;99.90
33269;DHT22;19640;50.944;5.260;2024-03-17T03:02:22;7.40;99.90
33269;DHT22;19640;50.944;5.260;2024-03-17T03:04:47;7.30;99.90
33269;DHT22;19640;50.944;5.260;2024-03-17T03:07:13;7.20;99.90
33269;DHT22;19640;50.944;5.260;2024-03-17T03:09:39;7.30;99.90
33269;DHT22;19640;50.944;5.260;2024-03-17T03:12:05;7.20;99.90
33269;DHT22;19640;50.944;5.260;2024-03-17T03:14:33;7.10;99.90
33269;DHT22;19640;50.944;5.260;2024-03-17T03:16:59;7.00;99.90
33269;DHT22;19640;50.944;5.260;2024-03-17T03:19:26;6.90;99.90
33269;DHT22;19640;50.944;5.260;2024-03-17T03:21:52;6.80;99.90
33269;DHT22;19640;50.944;5.260;2024-03-17T03:24:18;6.80;99.90
33269;DHT22;19640;50.944;5.260;2024-03-17T03:26:44;6.80;99.90
33269;DHT22;19640;50.944;5.260;2024-03-17T03:29:10;6.60;99.90
33269;DHT22;19640;50.944;5.260;2024-03-17T03:31:37;6.40;99.90
33269;DHT22;19640;50.944;5.260;2024-03-17T03:34:06;6.30;99.90
33269;DHT22;19640;50.944;5.260;2024-03-17T03:36:34;6.30;99.90
33269;DHT22;19640;50.944;5.260;2024-03-17T03:39:02;6.40;99.90
33269;DHT22;19640;50.944;5.260;2024-03-17T03:41:30;6.30;99.90
33269;DHT22;19640;50.944;5.260;2024-03-17T03:43:56;6.10;99.90
33269;DHT22;19640;50.944;5.260;2024-03-17T03:46:21;6.00;99.90
33269;DHT22;19640;50.944;5.260;2024-03-17T03:48:47;6.00;99.90
33269;DHT22;19640;50.944;5.260;2024-03-17T03:51:13;6.00;99.90
33269;DHT22;19640;50.944;5.260;2024-03-17T03:53:39;6.00;99.90
33269;DHT22;19640;50.944;5.260;2024-03-17T03:56:06;6.00;99.90
33269;DHT22;19640;50.944;5.260;2024-03-17T03:58:36;6.00;99.90
33269;DHT22;19640;50.944;5.260;2024-03-17T04:01:08;6.10;99.90
33269;DHT22;19640;50.944;5.260;2024-03-17T04:03:35;6.10;99.90
33269;DHT22;19640;50.944;5.260;2024-03-17T04:06:06;6.10;99.90
33269;DHT22;19640;50.944;5.260;2024-03-17T04:08:35;6.00;99.90
33269;DHT22;19640;50.944;5.260;2024-03-17T04:11:02;6.10;99.90
33269;DHT22;19640;50.944;5.260;2024-03-17T04:13:28;6.10;99.90
33269;DHT22;19640;50.944;5.260;2024-03-17T04:15:55;6.10;99.90
33269;DHT22;19640;50.944;5.260;2024-03-17T04:18:23;6.20;99.90
33269;DHT22;19640;50.944;5.260;2024-03-17T04:20:51;6.20;99.90
33269;DHT22;19640;50.944;5.260;2024-03-17T04:23:18;6.30;99.90
33269;DHT22;19640;50.944;5.260;2024-03-17T04:25:44;6.40;99.90
33269;DHT22;19640;50.944;5.260;2024-03-17T04:28:10;6.40;99.90
33269;DHT22;19640;50.944;5.260;2024-03-17T04:30:35;6.40;99.90
33269;DHT22;19640;50.944;5.260;2024-03-17T04:33:01;6.50;99.90
33269;DHT22;19640;50.944;5.260;2024-03-17T04:35:26;6.50;99.90
33269;DHT22;19640;50.944;5.260;2024-03-17T04:37:52;6.50;99.90
33269;DHT22;19640;50.944;5.260;2024-03-17T04:40:18;6.50;99.90
33269;DHT22;19640;50.944;5.260;2024-03-17T04:42:44;6.50;99.90
33269;DHT22;19640;50.944;5.260;2024-03-17T04:45:10;6.50;99.90
33269;DHT22;19640;50.944;5.260;2024-03-17T04:47:36;6.50;99.90
33269;DHT22;19640;50.944;5.260;2024-03-17T04:50:02;6.60;99.90
33269;DHT22;19640;50.944;5.260;2024-03-17T04:52:29;6.60;99.90
33269;DHT22;19640;50.944;5.260;2024-03-17T04:54:55;6.70;99.90
33269;DHT22;19640;50.944;5.260;2024-03-17T04:57:20;6.70;99.90
33269;DHT22;19640;50.944;5.260;2024-03-17T04:59:46;6.70;99.90
33269;DHT22;19640;50.944;5.260;2024-03-17T05:02:12;6.70;99.90
33269;DHT22;19640;50.944;5.260;2024-03-17T05:04:37;6.80;99.90
33269;DHT22;19640;50.944;5.260;2024-03-17T05:07:03;6.70;99.90
33269;DHT22;19640;50.944;5.260;2024-03-17T05:09:29;6.70;99.90
33269;DHT22;19640;50.944;5.260;2024-03-17T05:11:55;6.80;99.90
33269;DHT22;19640;50.944;5.260;2024-03-17T05:14:20;6.80;99.90
33269;DHT22;19640;50.944;5.260;2024-03-17T05:16:52;6.80;99.90
33269;DHT22;19640;50.944;5.260;2024-03-17T05:19:18;6.80;99.90
33269;DHT22;19640;50.944;5.260;2024-03-17T05:21:47;6.70;99.90
33269;DHT22;19640;50.944;5.260;2024-03-17T05:24:12;6.70;99.90
33269;DHT22;19640;50.944;5.260;2024-03-17T05:26:38;6.80;99.90
33269;DHT22;19640;50.944;5.260;2024-03-17T05:29:04;6.80;99.90
33269;DHT22;19640;50.944;5.260;2024-03-17T05:31:30;6.90;99.90
33269;DHT22;19640;50.944;5.260;2024-03-17T05:33:57;6.80;99.90
33269;DHT22;19640;50.944;5.260;2024-03-17T05:36:22;6.80;99.90
33269;DHT22;19640;50.944;5.260;2024-03-17T05:38:48;6.70;99.90
33269;DHT22;19640;50.944;5.260;2024-03-17T05:41:14;6.60;99.90
33269;DHT22;19640;50.944;5.260;2024-03-17T05:43:40;6.60;99.90
33269;DHT22;19640;50.944;5.260;2024-03-17T05:46:10;6.40;99.90
33269;DHT22;19640;50.944;5.260;2024-03-17T05:48:40;6.40;99.90
33269;DHT22;19640;50.944;5.260;2024-03-17T05:51:12;6.40;99.90
33269;DHT22;19640;50.944;5.260;2024-03-17T05:53:39;6.30;99.90
33269;DHT22;19640;50.944;5.260;2024-03-17T05:56:14;6.30;99.90
33269;DHT22;19640;50.944;5.260;2024-03-17T05:58:42;6.30;99.90
33269;DHT22;19640;50.944;5.260;2024-03-17T06:01:08;6.20;99.90
33269;DHT22;19640;50.944;5.260;2024-03-17T06:03:37;6.30;99.90
33269;DHT22;19640;50.944;5.260;2024-03-17T06:06:04;6.30;99.90
33269;DHT22;19640;50.944;5.260;2024-03-17T06:08:30;6.30;99.90
33269;DHT22;19640;50.944;5.260;2024-03-17T06:10:55;6.40;99.90
33269;DHT22;19640;50.944;5.260;2024-03-17T06:13:26;6.40;99.90
33269;DHT22;19640;50.944;5.260;2024-03-17T06:15:52;6.50;99.90
33269;DHT22;19640;50.944;5.260;2024-03-17T06:18:17;6.70;99.90
33269;DHT22;19640;50.944;5.260;2024-03-17T06:20:47;7.00;99.90
33269;DHT22;19640;50.944;5.260;2024-03-17T06:23:14;7.20;99.90
33269;DHT22;19640;50.944;5.260;2024-03-17T06:25:42;7.20;99.90
33269;DHT22;19640;50.944;5.260;2024-03-17T06:28:09;7.30;99.90
33269;DHT22;19640;50.944;5.260;2024-03-17T06:30:36;7.30;99.90
33269;DHT22;19640;50.944;5.260;2024-03-17T06:33:02;7.30;99.90
33269;DHT22;19640;50.944;5.260;2024-03-17T06:35:28;7.30;99.90
33269;DHT22;19640;50.944;5.260;2024-03-17T06:37:59;7.30;99.90
33269;DHT22;19640;50.944;5.260;2024-03-17T06:40:24;7.50;99.90
33269;DHT22;19640;50.944;5.260;2024-03-17T06:42:50;7.90;99.90
33269;DHT22;19640;50.944;5.260;2024-03-17T06:45:17;8.10;99.90
33269;DHT22;19640;50.944;5.260;2024-03-17T06:47:46;8.40;99.90
33269;DHT22;19640;50.944;5.260;2024-03-17T06:50:12;8.60;99.90
33269;DHT22;19640;50.944;5.260;2024-03-17T06:52:38;8.30;99.90
33269;DHT22;19640;50.944;5.260;2024-03-17T06:55:05;8.10;99.90
33269;DHT22;19640;50.944;5.260;2024-03-17T06:57:32;7.90;99.90
33269;DHT22;19640;50.944;5.260;2024-03-17T06:59:59;7.80;99.90
33269;DHT22;19640;50.944;5.260;2024-03-17T07:02:25;7.80;99.90
33269;DHT22;19640;50.944;5.260;2024-03-17T07:04:51;7.80;99.90
33269;DHT22;19640;50.944;5.260;2024-03-17T07:07:16;8.00;99.90
33269;DHT22;19640;50.944;5.260;2024-03-17T07:09:42;8.20;99.90
33269;DHT22;19640;50.944;5.260;2024-03-17T07:12:09;8.30;99.90
33269;DHT22;19640;50.944;5.260;2024-03-17T07:14:35;8.50;99.90
33269;DHT22;19640;50.944;5.260;2024-03-17T07:17:01;8.60;99.90
33269;DHT22;19640;50.944;5.260;2024-03-17T07:19:26;8.50;99.90
33269;DHT22;19640;50.944;5.260;2024-03-17T07:21:54;8.70;99.90
33269;DHT22;19640;50.944;5.260;2024-03-17T07:24:20;9.00;99.90
33269;DHT22;19640;50.944;5.260;2024-03-17T07:26:48;9.10;99.90
33269;DHT22;19640;50.944;5.260;2024-03-17T07:29:15;9.20;99.90
33269;DHT22;19640;50.944;5.260;2024-03-17T07:31:41;9.00;99.90
33269;DHT22;19640;50.944;5.260;2024-03-17T07:34:07;9.10;99.90
33269;DHT22;19640;50.944;5.260;2024-03-17T07:36:33;9.10;99.90
33269;DHT22;19640;50.944;5.260;2024-03-17T07:38:58;9.50;99.90
33269;DHT22;19640;50.944;5.260;2024-03-17T07:41:24;9.90;99.90
33269;DHT22;19640;50.944;5.260;2024-03-17T07:43:50;10.30;99.90
33269;DHT22;19640;50.944;5.260;2024-03-17T07:46:16;10.00;99.90
33269;DHT22;19640;50.944;5.260;2024-03-17T07:48:43;9.50;99.90
33269;DHT22;19640;50.944;5.260;2024-03-17T07:51:18;9.60;99.90
33269;DHT22;19640;50.944;5.260;2024-03-17T07:53:45;10.10;99.90
33269;DHT22;19640;50.944;5.260;2024-03-17T07:56:15;11.00;99.90
33269;DHT22;19640;50.944;5.260;2024-03-17T07:58:45;11.40;99.90
33269;DHT22;19640;50.944;5.260;2024-03-17T08:01:12;11.40;99.90
33269;DHT22;19640;50.944;5.260;2024-03-17T08:03:40;11.30;99.90
33269;DHT22;19640;50.944;5.260;2024-03-17T08:06:07;10.80;99.90
33269;DHT22;19640;50.944;5.260;2024-03-17T08:08:34;10.70;99.90
33269;DHT22;19640;50.944;5.260;2024-03-17T08:11:01;11.10;99.90
33269;DHT22;19640;50.944;5.260;2024-03-17T08:13:30;11.10;99.90
33269;DHT22;19640;50.944;5.260;2024-03-17T08:16:04;11.70;99.90
33269;DHT22;19640;50.944;5.260;2024-03-17T08:18:36;12.10;99.90
33269;DHT22;19640;50.944;5.260;2024-03-17T08:21:03;12.30;99.90
33269;DHT22;19640;50.944;5.260;2024-03-17T08:23:30;12.00;99.90
33269;DHT22;19640;50.944;5.260;2024-03-17T08:25:57;12.10;99.90
33269;DHT22;19640;50.944;5.260;2024-03-17T08:28:24;12.00;99.90
33269;DHT22;19640;50.944;5.260;2024-03-17T08:31:00;11.30;99.90
33269;DHT22;19640;50.944;5.260;2024-03-17T08:33:27;11.20;99.90
33269;DHT22;19640;50.944;5.260;2024-03-17T08:38:22;11.10;99.90
33269;DHT22;19640;50.944;5.260;2024-03-17T08:40:52;11.30;99.90
33269;DHT22;19640;50.944;5.260;2024-03-17T08:43:18;11.60;99.90
33269;DHT22;19640;50.944;5.260;2024-03-17T08:45:45;11.60;99.90
33269;DHT22;19640;50.944;5.260;2024-03-17T08:48:11;11.50;99.90
33269;DHT22;19640;50.944;5.260;2024-03-17T08:50:37;11.70;99.90
33269;DHT22;19640;50.944;5.260;2024-03-17T08:53:03;12.00;99.90
33269;DHT22;19640;50.944;5.260;2024-03-17T08:55:28;11.70;99.90
33269;DHT22;19640;50.944;5.260;2024-03-17T08:57:54;12.00;99.90
33269;DHT22;19640;50.944;5.260;2024-03-17T09:00:20;12.00;99.90
33269;DHT22;19640;50.944;5.260;2024-03-17T09:02:45;12.20;99.90
33269;DHT22;19640;50.944;5.260;2024-03-17T09:05:11;12.70;99.90
33269;DHT22;19640;50.944;5.260;2024-03-17T09:07:40;12.80;99.90
33269;DHT22;19640;50.944;5.260;2024-03-17T09:10:06;12.80;99.90
33269;DHT22;19640;50.944;5.260;2024-03-17T09:12:31;12.80;99.90
33269;DHT22;19640;50.944;5.260;2024-03-17T09:14:57;13.20;99.90
33269;DHT22;19640;50.944;5.260;2024-03-17T09:17:23;13.30;99.90
33269;DHT22;19640;50.944;5.260;2024-03-17T09:19:49;13.30;99.90
33269;DHT22;19640;50.944;5.260;2024-03-17T09:22:14;13.10;99.90
33269;DHT22;19640;50.944;5.260;2024-03-17T09:24:40;13.20;99.90
33269;DHT22;19640;50.944;5.260;2024-03-17T09:27:06;13.30;99.90
33269;DHT22;19640;50.944;5.260;2024-03-17T09:29:32;13.20;99.90
33269;DHT22;19640;50.944;5.260;2024-03-17T09:32:01;13.20;99.90
33269;DHT22;19640;50.944;5.260;2024-03-17T09:34:26;13.10;99.90
33269;DHT22;19640;50.944;5.260;2024-03-17T09:36:52;13.30;99.90
33269;DHT22;19640;50.944;5.260;2024-03-17T09:39:18;13.40;99.90
33269;DHT22;19640;50.944;5.260;2024-03-17T09:41:46;13.40;99.90
33269;DHT22;19640;50.944;5.260;2024-03-17T09:44:12;13.30;99.90
33269;DHT22;19640;50.944;5.260;2024-03-17T09:46:39;13.40;99.90
33269;DHT22;19640;50.944;5.260;2024-03-17T09:49:10;13.40;99.90
33269;DHT22;19640;50.944;5.260;2024-03-17T09:51:39;13.50;99.90
33269;DHT22;19640;50.944;5.260;2024-03-17T09:54:17;13.50;99.90
33269;DHT22;19640;50.944;5.260;2024-03-17T09:56:45;13.80;99.90
33269;DHT22;19640;50.944;5.260;2024-03-17T09:59:11;13.90;99.90
33269;DHT22;19640;50.944;5.260;2024-03-17T10:01:36;13.90;99.90
33269;DHT22;19640;50.944;5.260;2024-03-17T10:04:04;13.70;99.90
33269;DHT22;19640;50.944;5.260;2024-03-17T10:06:30;13.60;99.90
33269;DHT22;19640;50.944;5.260;2024-03-17T10:08:57;13.80;99.90
33269;DHT22;19640;50.944;5.260;2024-03-17T10:11:25;14.00;99.90
33269;DHT22;19640;50.944;5.260;2024-03-17T10:14:05;14.20;99.90
33269;DHT22;19640;50.944;5.260;2024-03-17T10:16:32;14.30;99.90
33269;DHT22;19640;50.944;5.260;2024-03-17T10:21:39;14.50;99.90
33269;DHT22;19640;50.944;5.260;2024-03-17T10:24:34;14.50;99.90
33269;DHT22;19640;50.944;5.260;2024-03-17T10:27:01;14.30;99.90
33269;DHT22;19640;50.944;5.260;2024-03-17T10:29:31;14.40;99.90
33269;DHT22;19640;50.944;5.260;2024-03-17T10:34:39;14.00;99.90
33269;DHT22;19640;50.944;5.260;2024-03-17T10:37:11;14.10;99.90
33269;DHT22;19640;50.944;5.260;2024-03-17T10:39:40;14.00;99.90
33269;DHT22;19640;50.944;5.260;2024-03-17T10:42:08;14.10;99.90
33269;DHT22;19640;50.944;5.260;2024-03-17T10:44:38;14.10;99.90
33269;DHT22;19640;50.944;5.260;2024-03-17T10:47:05;14.00;99.90
33269;DHT22;19640;50.944;5.260;2024-03-17T10:49:36;13.60;99.90
33269;DHT22;19640;50.944;5.260;2024-03-17T10:52:08;13.40;99.90
33269;DHT22;19640;50.944;5.260;2024-03-17T10:54:40;13.30;99.90
33269;DHT22;19640;50.944;5.260;2024-03-17T10:57:31;13.40;99.90
33269;DHT22;19640;50.944;5.260;2024-03-17T11:00:00;13.60;99.90
33269;DHT22;19640;50.944;5.260;2024-03-17T11:02:28;13.80;99.90
33269;DHT22;19640;50.944;5.260;2024-03-17T11:05:03;13.80;99.90
33269;DHT22;19640;50.944;5.260;2024-03-17T11:07:30;13.60;99.90
33269;DHT22;19640;50.944;5.260;2024-03-17T11:10:03;13.70;99.90
33269;DHT22;19640;50.944;5.260;2024-03-17T11:12:43;13.80;99.90
33269;DHT22;19640;50.944;5.260;2024-03-17T11:17:52;13.90;99.90
33269;DHT22;19640;50.944;5.260;2024-03-17T11:22:54;14.00;99.90
33269;DHT22;19640;50.944;5.260;2024-03-17T11:28:03;13.70;99.90
33269;DHT22;19640;50.944;5.260;2024-03-17T11:38:55;13.30;99.90
33269;DHT22;19640;50.944;5.260;2024-03-17T11:41:35;13.50;99.90
33269;DHT22;19640;50.944;5.260;2024-03-17T11:49:36;13.60;99.90
33269;DHT22;19640;50.944;5.260;2024-03-17T11:52:12;13.50;99.90
33269;DHT22;19640;50.944;5.260;2024-03-17T11:57:21;13.80;99.90
33269;DHT22;19640;50.944;5.260;2024-03-17T11:59:50;14.00;99.90
33269;DHT22;19640;50.944;5.260;2024-03-17T12:02:19;14.10;99.90
33269;DHT22;19640;50.944;5.260;2024-03-17T12:04:45;14.00;99.90
33269;DHT22;19640;50.944;5.260;2024-03-17T12:07:16;13.90;99.90
33269;DHT22;19640;50.944;5.260;2024-03-17T12:09:43;14.00;99.90
33269;DHT22;19640;50.944;5.260;2024-03-17T12:12:18;14.10;99.90
33269;DHT22;19640;50.944;5.260;2024-03-17T12:14:45;14.40;99.90
33269;DHT22;19640;50.944;5.260;2024-03-17T12:17:12;14.60;99.90
33269;DHT22;19640;50.944;5.260;2024-03-17T12:19:40;14.60;99.90
33269;DHT22;19640;50.944;5.260;2024-03-17T12:22:06;14.40;99.90
33269;DHT22;19640;50.944;5.260;2024-03-17T12:24:33;14.30;99.90
33269;DHT22;19640;50.944;5.260;2024-03-17T12:27:00;14.30;99.90
33269;DHT22;19640;50.944;5.260;2024-03-17T12:29:29;14.40;99.90
33269;DHT22;19640;50.944;5.260;2024-03-17T12:32:02;14.70;99.90
33269;DHT22;19640;50.944;5.260;2024-03-17T12:34:30;15.10;99.90
33269;DHT22;19640;50.944;5.260;2024-03-17T12:36:57;15.30;99.90
33269;DHT22;19640;50.944;5.260;2024-03-17T12:44:36;15.40;99.90
33269;DHT22;19640;50.944;5.260;2024-03-17T12:47:14;15.40;99.90
33269;DHT22;19640;50.944;5.260;2024-03-17T12:49:45;15.70;99.90
33269;DHT22;19640;50.944;5.260;2024-03-17T12:52:37;15.50;99.90
33269;DHT22;19640;50.944;5.260;2024-03-17T12:55:08;15.60;99.90
33269;DHT22;19640;50.944;5.260;2024-03-17T13:00:56;15.80;99.90
33269;DHT22;19640;50.944;5.260;2024-03-17T13:05:55;15.20;99.90
33269;DHT22;19640;50.944;5.260;2024-03-17T13:08:20;15.30;99.90
33269;DHT22;19640;50.944;5.260;2024-03-17T13:10:46;15.30;99.90
33269;DHT22;19640;50.944;5.260;2024-03-17T13:13:13;15.50;99.90
33269;DHT22;19640;50.944;5.260;2024-03-17T13:15:42;15.40;99.90
33269;DHT22;19640;50.944;5.260;2024-03-17T13:18:09;15.10;99.90
33269;DHT22;19640;50.944;5.260;2024-03-17T13:20:35;15.20;99.90
33269;DHT22;19640;50.944;5.260;2024-03-17T13:23:01;15.20;99.90
33269;DHT22;19640;50.944;5.260;2024-03-17T13:25:30;15.60;99.90
33269;DHT22;19640;50.944;5.260;2024-03-17T13:28:05;15.70;99.90
33269;DHT22;19640;50.944;5.260;2024-03-17T13:30:33;15.40;99.90
33269;DHT22;19640;50.944;5.260;2024-03-17T13:33:08;15.40;99.90
33269;DHT22;19640;50.944;5.260;2024-03-17T13:35:37;15.40;99.90
33269;DHT22;19640;50.944;5.260;2024-03-17T13:38:05;15.60;99.90
33269;DHT22;19640;50.944;5.260;2024-03-17T13:40:33;15.70;99.90
33269;DHT22;19640;50.944;5.260;2024-03-17T13:42:59;15.60;99.90
33269;DHT22;19640;50.944;5.260;2024-03-17T13:45:28;15.70;99.90
33269;DHT22;19640;50.944;5.260;2024-03-17T13:47:57;15.50;99.90
33269;DHT22;19640;50.944;5.260;2024-03-17T13:50:23;15.60;99.90
33269;DHT22;19640;50.944;5.260;2024-03-17T13:52:49;15.40;99.90
33269;DHT22;19640;50.944;5.260;2024-03-17T13:55:20;15.70;99.90
33269;DHT22;19640;50.944;5.260;2024-03-17T13:57:48;15.70;99.90
33269;DHT22;19640;50.944;5.260;2024-03-17T14:00:15;15.40;99.90
33269;DHT22;19640;50.944;5.260;2024-03-17T14:02:45;15.30;99.90
33269;DHT22;19640;50.944;5.260;2024-03-17T14:05:19;15.40;99.90
33269;DHT22;19640;50.944;5.260;2024-03-17T14:07:45;15.50;99.90
33269;DHT22;19640;50.944;5.260;2024-03-17T14:10:13;15.40;99.90
33269;DHT22;19640;50.944;5.260;2024-03-17T14:12:39;15.40;99.90
33269;DHT22;19640;50.944;5.260;2024-03-17T14:15:07;15.50;99.90
33269;DHT22;19640;50.944;5.260;2024-03-17T14:17:37;15.50;99.90
33269;DHT22;19640;50.944;5.260;2024-03-17T14:20:02;15.50;99.90
33269;DHT22;19640;50.944;5.260;2024-03-17T14:22:29;15.30;99.90
33269;DHT22;19640;50.944;5.260;2024-03-17T14:24:54;15.30;99.90
33269;DHT22;19640;50.944;5.260;2024-03-17T14:27:20;15.50;99.90
33269;DHT22;19640;50.944;5.260;2024-03-17T14:29:46;15.60;99.90
33269;DHT22;19640;50.944;5.260;2024-03-17T14:32:12;15.80;99.90
33269;DHT22;19640;50.944;5.260;2024-03-17T14:34:40;15.90;99.90
33269;DHT22;19640;50.944;5.260;2024-03-17T14:37:05;16.00;99.90
33269;DHT22;19640;50.944;5.260;2024-03-17T14:39:32;16.00;99.90
33269;DHT22;19640;50.944;5.260;2024-03-17T14:41:58;15.80;99.90
33269;DHT22;19640;50.944;5.260;2024-03-17T14:44:24;15.40;99.90
33269;DHT22;19640;50.944;5.260;2024-03-17T14:46:50;15.30;99.90
33269;DHT22;19640;50.944;5.260;2024-03-17T14:49:21;15.40;99.90
33269;DHT22;19640;50.944;5.260;2024-03-17T14:51:46;15.40;99.90
33269;DHT22;19640;50.944;5.260;2024-03-17T14:54:13;15.30;99.90
33269;DHT22;19640;50.944;5.260;2024-03-17T14:56:39;15.20;99.90
33269;DHT22;19640;50.944;5.260;2024-03-17T14:59:05;15.30;99.90
33269;DHT22;19640;50.944;5.260;2024-03-17T15:01:31;15.20;99.90
33269;DHT22;19640;50.944;5.260;2024-03-17T15:03:57;15.20;99.90
33269;DHT22;19640;50.944;5.260;2024-03-17T15:06:23;15.00;99.90
33269;DHT22;19640;50.944;5.260;2024-03-17T15:08:50;15.10;99.90
33269;DHT22;19640;50.944;5.260;2024-03-17T15:11:16;15.10;99.90
33269;DHT22;19640;50.944;5.260;2024-03-17T15:13:43;15.10;99.90
33269;DHT22;19640;50.944;5.260;2024-03-17T15:16:09;15.20;99.90
33269;DHT22;19640;50.944;5.260;2024-03-17T15:18:35;15.30;99.90
33269;DHT22;19640;50.944;5.260;2024-03-17T15:21:02;15.40;99.90
33269;DHT22;19640;50.944;5.260;2024-03-17T15:23:30;15.50;99.90
33269;DHT22;19640;50.944;5.260;2024-03-17T15:28:26;15.50;99.90
33269;DHT22;19640;50.944;5.260;2024-03-17T15:30:52;15.40;99.90
33269;DHT22;19640;50.944;5.260;2024-03-17T15:33:18;15.30;99.90
33269;DHT22;19640;50.944;5.260;2024-03-17T15:35:43;15.10;99.90
33269;DHT22;19640;50.944;5.260;2024-03-17T15:38:09;14.80;99.90
33269;DHT22;19640;50.944;5.260;2024-03-17T15:40:37;14.80;99.90
33269;DHT22;19640;50.944;5.260;2024-03-17T15:43:03;14.80;99.90
33269;DHT22;19640;50.944;5.260;2024-03-17T15:45:29;14.80;99.90
33269;DHT22;19640;50.944;5.260;2024-03-17T15:47:55;14.60;99.90
33269;DHT22;19640;50.944;5.260;2024-03-17T15:50:22;14.60;99.90
33269;DHT22;19640;50.944;5.260;2024-03-17T15:52:48;14.50;99.90
33269;DHT22;19640;50.944;5.260;2024-03-17T15:55:14;14.60;99.90
33269;DHT22;19640;50.944;5.260;2024-03-17T15:57:39;14.50;99.90
33269;DHT22;19640;50.944;5.260;2024-03-17T16:00:06;14.50;99.90
33269;DHT22;19640;50.944;5.260;2024-03-17T16:02:34;14.60;99.90
33269;DHT22;19640;50.944;5.260;2024-03-17T16:05:02;14.60;99.90
33269;DHT22;19640;50.944;5.260;2024-03-17T16:07:30;14.90;99.90
33269;DHT22;19640;50.944;5.260;2024-03-17T16:09:55;14.30;99.90
33269;DHT22;19640;50.944;5.260;2024-03-17T16:12:21;14.30;99.90
33269;DHT22;19640;50.944;5.260;2024-03-17T16:14:48;14.50;99.90
33269;DHT22;19640;50.944;5.260;2024-03-17T16:17:15;14.60;99.90
33269;DHT22;19640;50.944;5.260;2024-03-17T16:19:41;14.60;99.90
33269;DHT22;19640;50.944;5.260;2024-03-17T16:22:09;14.50;99.90
33269;DHT22;19640;50.944;5.260;2024-03-17T16:24:35;14.20;99.90